Latest Weather Observations for Larapuna (Eddystone Point)

IDT60801

Issued at 3:02 pm EST Sunday 31 July 2016 (issued every 30 minutes, with the page automatically refreshed every 10 minutes)

About weather observations | Map of weather stations | Latest weather observations for TAS | Other Formats
Station Details ID: 092045 Name: LARAPUNA (EDDYSTONE POINT) Lat: -40.99 Lon: 148.35 Height: 19.7 m
Data from the previous 72 hours. | See also: Recent months at Larapuna (Eddystone Point)
Date/Time
EST
Temp
°C
App
Temp
°C
Dew
Point
°C
Rel
Hum
%
Delta-T
°C
Wind Press
QNH
hPa
Press
MSL
hPa
Rain since
9am
mm
Dir  Spd
km/h
Gust
km/h
Spd
kts
Gust
kts
31/03:00pm 13.7 7.0 7.2 65 3.2 WNW 32 43 17 23 1010.1 1010.1 0.0
31/02:30pm 14.5 8.9 7.1 61 3.6 NW 26 35 14 19 1009.8 1009.8 0.0
31/02:00pm 15.1 9.5 5.3 52 4.6 W 24 35 13 19 1009.5 1009.5 0.0
31/01:30pm 14.7 9.4 5.0 52 4.5 WNW 22 32 12 17 1009.5 1009.5 0.0
31/01:00pm 14.7 9.1 5.2 53 4.5 WNW 24 35 13 19 1009.4 1009.4 0.0
31/12:30pm 14.6 9.7 5.1 53 4.5 W 20 33 11 18 1009.5 1009.5 0.0
31/12:00pm 14.5 9.4 6.1 57 4.0 WSW 22 32 12 17 1009.7 1009.7 0.0
31/11:37am 13.9 7.3 6.0 59 3.8 W 30 48 16 26 1009.6 1009.6 0.0
31/11:30am 13.6 6.5 5.5 58 3.8 W 32 48 17 26 1009.6 1009.6 0.0
31/11:28am 13.7 7.0 5.6 58 3.8 W 30 48 16 26 1009.6 1009.6 0.0
31/11:00am 13.4 7.6 6.3 62 3.4 W 26 41 14 22 1009.8 1009.8 0.0
31/10:36am 12.6 5.0 5.8 63 3.2 W 35 54 19 29 1009.0 1009.0 0.0
31/10:30am 12.6 4.3 6.0 64 3.1 WNW 39 52 21 28 1008.8 1008.8 0.0
31/10:04am 12.1 4.9 5.7 65 3.0 WNW 33 52 18 28 1008.5 1008.5 0.0
31/10:00am 12.2 5.3 6.3 67 2.8 WNW 32 46 17 25 1008.6 1008.6 0.0
31/09:30am 11.5 3.9 6.0 69 2.6 WNW 35 48 19 26 1008.2 1008.2 0.0
31/09:00am 11.1 5.2 6.0 71 2.4 W 26 39 14 21 1008.5 1008.5 1.8
31/08:30am 10.7 4.2 6.5 75 2.0 W 30 41 16 22 1008.4 1008.4 1.8
31/08:00am 10.2 4.2 7.1 81 1.5 WNW 28 37 15 20 1007.6 1007.6 1.8
31/07:30am 10.3 3.6 7.5 83 1.3 WNW 32 43 17 23 1007.5 1007.5 1.8
31/07:00am 10.2 4.3 7.6 84 1.2 W 28 41 15 22 1007.3 1007.3 1.8
31/06:30am 10.5 4.3 7.9 84 1.3 WNW 30 41 16 22 1006.7 1006.7 1.8
31/06:00am 10.9 5.3 8.7 86 1.1 WNW 28 43 15 23 1006.3 1006.3 1.8
31/05:30am 11.3 6.3 9.4 88 1.0 W 26 35 14 19 1006.1 1006.1 1.8
31/05:00am 11.4 5.3 9.7 89 0.9 WNW 32 46 17 25 1005.5 1005.5 1.8
31/04:30am 11.3 3.8 9.4 88 1.0 WNW 39 61 21 33 1004.7 1004.7 1.8
31/04:00am 11.4 1.8 9.5 88 1.0 WNW 50 87 27 47 1004.8 1004.8 1.0
31/03:30am 12.3 1.3 9.1 81 1.6 NW 57 85 31 46 1003.8 1003.8 0.4
31/03:00am 12.0 1.1 9.4 84 1.3 NW 57 82 31 44 1004.7 1004.7 0.4
31/02:36am 12.7 2.5 8.6 76 2.0 NW 52 72 28 39 1004.9 1004.9 0.0
31/02:30am 12.7 2.5 8.6 76 2.0 NW 52 67 28 36 1005.1 1005.1 0.0
31/02:00am 12.3 3.9 9.0 80 1.7 NNW 43 61 23 33 1005.8 1005.8 0.0
31/01:45am 12.4 4.4 9.1 80 1.7 NNW 41 59 22 32 1006.1 1006.1 0.0
31/01:30am 12.3 4.4 9.5 83 1.4 NNW 41 54 22 29 1006.5 1006.5 0.0
31/01:16am 12.4 5.3 9.6 83 1.4 NNW 37 56 20 30 1007.0 1007.0 0.0
31/01:00am 12.2 4.7 9.6 84 1.3 NNW 39 54 21 29 1007.3 1007.3 0.0
31/12:30am 12.3 4.4 9.3 82 1.5 NNW 41 56 22 30 1008.0 1008.0 0.0
31/12:00am 12.3 5.1 9.0 80 1.7 NNW 37 50 20 27 1008.7 1008.7 0.0
 
Date/Time
EST
Temp
°C
App
Temp
°C
Dew
Point
°C
Rel
Hum
%
Delta-T
°C
Wind Press
QNH
hPa
Press
MSL
hPa
Rain since
9am
mm
Dir  Spd
km/h
Gust
km/h
Spd
kts
Gust
kts
30/11:30pm 12.0 5.0 8.5 79 1.7 NNW 35 46 19 25 1009.3 1009.3 0.0
30/11:00pm 11.7 5.3 8.7 82 1.5 N 32 41 17 22 1009.9 1009.9 0.0
30/10:30pm 11.9 5.3 8.6 80 1.6 N 33 41 18 22 1010.4 1010.4 0.0
30/10:00pm 11.8 4.5 8.8 82 1.5 N 37 46 20 25 1010.8 1010.8 0.0
30/09:30pm 11.7 4.1 9.1 84 1.3 N 39 46 21 25 1010.9 1010.9 0.0
30/09:00pm 11.9 4.7 9.3 84 1.3 N 37 46 20 25 1011.4 1011.4 0.0
30/08:30pm 11.9 5.4 8.9 82 1.5 NNW 33 41 18 22 1011.5 1011.5 0.0
30/08:00pm 11.5 4.6 8.9 84 1.3 N 35 46 19 25 1011.6 1011.6 0.0
30/07:30pm 11.8 5.5 9.0 83 1.4 NNW 32 41 17 22 1012.0 1012.0 0.0
30/07:00pm 10.9 6.9 8.3 84 1.3 NNW 19 24 10 13 1012.6 1012.6 0.0
30/06:30pm 10.7 6.4 7.9 83 1.4 NNW 20 26 11 14 1013.2 1013.2 0.0
30/06:00pm 10.7 6.5 7.6 81 1.5 NNW 19 26 10 14 1013.0 1013.0 0.0
30/05:30pm 10.5 5.9 6.6 77 1.8 NNW 20 28 11 15 1013.2 1013.2 0.0
30/05:00pm 10.7 5.2 6.1 73 2.1 NNW 24 30 13 16 1013.4 1013.4 0.0
30/04:30pm 11.0 6.2 5.7 70 2.5 NW 20 28 11 15 1014.3 1014.3 0.0
30/04:00pm 11.3 5.3 5.2 66 2.8 NW 26 37 14 20 1014.0 1014.0 0.0
30/03:30pm 11.7 4.9 5.1 64 3.0 NW 30 39 16 21 1014.3 1014.3 0.0
30/03:00pm 12.0 5.5 4.7 61 3.3 WNW 28 41 15 22 1014.6 1014.6 0.0
30/02:30pm 11.6 4.2 4.1 60 3.4 NW 32 41 17 22 1015.0 1015.0 0.0
30/02:06pm 11.9 5.4 4.6 61 3.3 NW 28 50 15 27 1015.1 1015.1 0.0
30/02:00pm 12.3 6.2 5.0 61 3.4 NW 26 41 14 22 1015.2 1015.2 0.0
30/01:30pm 12.1 4.7 4.1 58 3.6 NW 32 41 17 22 1015.7 1015.7 0.0
30/01:00pm 12.1 4.8 4.6 60 3.4 NW 32 39 17 21 1016.4 1016.4 0.0
30/12:30pm 11.6 4.9 3.4 57 3.6 NW 28 35 15 19 1017.2 1017.3 0.0
30/12:00pm 11.7 5.8 4.0 59 3.4 NW 24 37 13 20 1017.7 1017.8 0.0
30/11:30am 10.3 3.9 3.3 62 3.0 NW 26 39 14 21 1018.4 1018.5 0.0
30/11:00am 11.3 5.7 3.6 59 3.4 NW 22 32 12 17 1018.6 1018.7 0.0
30/10:30am 10.9 6.3 3.9 62 3.1 NW 17 24 9 13 1018.8 1018.9 0.0
30/10:00am 10.6 6.2 4.5 66 2.7 NW 17 20 9 11 1018.9 1019.0 0.0
30/09:30am 9.9 6.2 4.5 69 2.4 NW 13 19 7 10 1018.9 1019.0 0.0
30/09:00am 8.6 4.7 3.6 71 2.2 WNW 13 15 7 8 1019.2 1019.3 0.0
30/08:30am 7.1 2.3 2.6 73 1.9 WNW 17 19 9 10 1019.2 1019.3 0.0
30/08:00am 6.3 1.3 1.6 72 1.9 WNW 17 17 9 9 1019.2 1019.3 0.0
30/07:30am 5.9 2.5 1.6 74 1.7 WNW 9 11 5 6 1019.1 1019.2 0.0
30/07:00am 5.5 1.6 1.4 75 1.6 WNW 11 13 6 7 1019.0 1019.1 0.0
30/06:30am 5.2 0.2 1.1 75 1.6 WNW 17 17 9 9 1019.0 1019.1 0.0
30/06:00am 6.8 3.7 1.1 67 2.3 W 7 9 4 5 1018.8 1018.9 0.0
30/05:30am 6.7 3.3 1.8 71 2.0 WSW 9 11 5 6 1018.7 1018.8 0.0
30/05:00am 7.0 3.7 2.7 74 1.8 SW 9 11 5 6 1018.5 1018.6 0.0
30/04:30am 6.9 4.1 3.3 78 1.5 SSW 7 9 4 5 1018.1 1018.2 0.0
30/04:00am 6.6 3.9 3.6 81 1.3 SSW 7 9 4 5 1018.1 1018.2 0.0
30/03:30am 7.5 5.0 4.8 83 1.2 SW 7 9 4 5 1018.0 1018.1 0.0
30/03:00am 7.2 3.1 4.2 81 1.3 SSW 15 20 8 11 1017.7 1017.8 0.0
30/02:30am 7.3 4.3 4.3 81 1.3 SW 9 13 5 7 1017.7 1017.8 0.0
30/02:00am 8.0 5.0 4.2 77 1.6 SSW 9 11 5 6 1017.5 1017.6 0.0
30/01:30am 8.2 4.8 4.0 75 1.8 SW 11 13 6 7 1017.2 1017.3 0.0
30/01:00am 7.6 3.3 3.5 75 1.7 SW 15 17 8 9 1016.9 1016.9 0.0
30/12:30am 7.6 3.5 4.6 81 1.3 WSW 15 17 8 9 1016.5 1016.5 0.0
30/12:00am 7.8 4.1 4.7 81 1.4 WSW 13 19 7 10 1016.3 1016.3 0.0
 
Date/Time
EST
Temp
°C
App
Temp
°C
Dew
Point
°C
Rel
Hum
%
Delta-T
°C
Wind Press
QNH
hPa
Press
MSL
hPa
Rain since
9am
mm
Dir  Spd
km/h
Gust
km/h
Spd
kts
Gust
kts
29/11:30pm 9.0 4.7 5.4 78 1.6 SW 17 22 9 12 1015.9 1015.9 0.0
29/11:00pm 8.5 5.0 5.6 82 1.3 SSW 13 20 7 11 1015.4 1015.4 0.0
29/10:30pm 8.6 4.0 5.5 81 1.4 WNW 19 24 10 13 1014.9 1014.9 0.0
29/10:00pm 9.2 4.6 5.8 79 1.6 W 19 26 10 14 1014.4 1014.4 0.0
29/09:30pm 9.7 4.7 6.4 80 1.5 WNW 22 28 12 15 1013.7 1013.7 0.0
29/09:00pm 9.9 5.0 7.0 82 1.4 WNW 22 30 12 16 1013.2 1013.2 0.0
29/08:30pm 10.4 5.7 7.6 83 1.3 WNW 22 28 12 15 1012.5 1012.5 0.0
29/08:00pm 10.7 6.6 7.8 82 1.4 WNW 19 22 10 12 1012.1 1012.1 0.0
29/07:30pm 11.1 6.9 8.1 82 1.5 WNW 20 28 11 15 1011.6 1011.6 0.0
29/07:00pm 11.3 7.3 8.2 81 1.5 WNW 19 26 10 14 1011.1 1011.1 0.0
29/06:30pm 11.7 6.7 8.2 79 1.7 WNW 24 35 13 19 1010.5 1010.5 0.0
29/06:00pm 11.9 6.1 8.0 77 1.9 WNW 28 44 15 24 1010.1 1010.1 0.0
29/05:30pm 11.9 5.3 7.8 76 2.0 WNW 32 52 17 28 1009.6 1009.6 0.0
29/05:13pm 12.1 4.5 7.6 74 2.2 WNW 37 56 20 30 1009.1 1009.1 0.0
29/05:00pm 12.3 5.1 7.8 74 2.2 WNW 35 52 19 28 1009.0 1009.0 0.0
29/04:30pm 12.7 5.5 7.6 71 2.5 WNW 35 50 19 27 1009.0 1009.0 0.0
29/04:00pm 12.9 4.8 6.9 67 2.9 WNW 39 59 21 32 1008.8 1008.8 0.0
29/03:30pm 14.1 6.7 6.9 62 3.5 W 35 59 19 32 1008.3 1008.3 0.0
29/03:10pm 14.1 6.8 7.2 63 3.4 WNW 35 54 19 29 1008.3 1008.3 0.0
29/03:00pm 14.0 6.3 7.1 63 3.4 WNW 37 54 20 29 1008.2 1008.2 0.0
29/02:30pm 13.8 6.6 7.8 67 3.0 WNW 35 56 19 30 1008.2 1008.2 0.0
29/02:00pm 13.3 6.1 7.7 69 2.8 WNW 35 56 19 30 1007.9 1007.9 0.0
29/01:30pm 13.6 5.3 7.8 68 2.9 WNW 41 59 22 32 1008.1 1008.1 0.0
29/01:05pm 13.9 6.7 7.7 66 3.1 WNW 35 54 19 29 1008.4 1008.4 0.0
29/01:00pm 14.1 6.6 7.9 66 3.1 WNW 37 52 20 28 1008.4 1008.4 0.0
29/12:30pm 13.9 5.1 7.4 65 3.2 WNW 43 63 23 34 1008.4 1008.4 0.0
29/12:01pm 13.4 4.5 7.0 65 3.1 WNW 43 65 23 35 1009.0 1009.0 0.0
29/12:00pm 13.8 5.0 7.3 65 3.2 WNW 43 59 23 32 1009.0 1009.0 0.0
29/11:33am 13.8 6.6 7.8 67 3.0 WNW 35 54 19 29 1009.4 1009.4 0.0
29/11:30am 13.4 5.3 7.2 66 3.0 WNW 39 54 21 29 1009.5 1009.5 0.0
29/11:00am 13.4 4.1 7.4 67 2.9 WNW 46 74 25 40 1009.9 1009.9 0.0
29/10:30am 13.2 4.2 7.2 67 2.9 WNW 44 69 24 37 1009.8 1009.8 0.0
29/10:00am 12.8 3.9 7.0 68 2.8 WNW 43 67 23 36 1009.6 1009.6 0.0
29/09:32am 12.8 5.1 7.0 68 2.8 WNW 37 56 20 30 1009.6 1009.6 0.0
29/09:30am 12.9 5.6 7.4 69 2.7 WNW 35 52 19 28 1009.7 1009.7 0.0
29/09:00am 12.1 4.5 7.4 73 2.3 WNW 37 63 20 34 1009.8 1009.8 0.0
29/08:37am 11.1 3.4 7.2 77 1.9 WNW 37 56 20 30 1010.1 1010.1 0.0
29/08:30am 11.0 2.9 7.1 77 1.9 WNW 39 56 21 30 1010.1 1010.1 0.0
29/08:01am 10.9 3.2 7.0 77 1.9 WNW 37 61 20 33 1010.1 1010.1 0.0
29/08:00am 10.8 3.4 6.9 77 1.9 WNW 35 50 19 27 1010.2 1010.2 0.0
29/07:30am 11.0 2.5 6.9 76 1.9 WNW 41 65 22 35 1009.7 1009.7 0.0
29/07:00am 11.0 0.8 7.1 77 1.9 WNW 50 70 27 38 1009.2 1009.2 0.0
29/06:30am 11.0 1.2 7.1 77 1.9 WNW 48 67 26 36 1008.8 1008.8 0.0
29/06:00am 10.9 0.7 6.8 76 1.9 WNW 50 78 27 42 1008.8 1008.8 0.0
29/05:30am 10.9 -0.2 6.5 74 2.1 WNW 54 76 29 41 1008.8 1008.8 0.0
29/05:00am 11.0 0.3 6.4 73 2.2 WNW 52 72 28 39 1008.8 1008.8 0.0
29/04:30am 11.0 1.2 6.9 76 1.9 WNW 48 74 26 40 1009.4 1009.4 0.0
29/04:00am 10.8 3.2 7.7 81 1.5 WNW 37 63 20 34 1010.4 1010.4 0.0
29/03:30am 10.7 3.1 7.4 80 1.6 WNW 37 56 20 30 1010.6 1010.6 0.0
29/03:00am 10.7 2.0 7.6 81 1.5 WNW 43 61 23 33 1010.4 1010.4 0.0
29/02:30am 10.8 2.3 7.1 78 1.8 WNW 41 61 22 33 1010.4 1010.4 0.0
29/02:05am 10.7 3.4 7.0 78 1.8 WNW 35 54 19 29 1010.8 1010.8 0.0
29/02:00am 10.8 3.5 7.1 78 1.8 WNW 35 50 19 27 1011.0 1011.0 0.0
29/01:36am 10.7 4.6 6.8 77 1.8 WNW 28 54 15 29 1011.8 1011.8 0.0
29/01:30am 10.6 5.7 6.7 77 1.8 WNW 22 39 12 21 1012.0 1012.0 0.0
29/01:00am 10.5 5.5 6.6 77 1.8 WNW 22 37 12 20 1012.5 1012.5 0.0
29/12:30am 10.5 5.9 6.5 76 1.9 NW 20 32 11 17 1013.0 1013.0 0.0
29/12:00am 10.3 4.8 5.7 73 2.1 WNW 24 35 13 19 1013.1 1013.1 0.0
 
Date/Time
EST
Temp
°C
App
Temp
°C
Dew
Point
°C
Rel
Hum
%
Delta-T
°C
Wind Press
QNH
hPa
Press
MSL
hPa
Rain since
9am
mm
Dir  Spd
km/h
Gust
km/h
Spd
kts
Gust
kts
28/11:30pm 10.2 4.1 5.0 70 2.4 WNW 26 37 14 20 1013.2 1013.2 0.0
28/11:00pm 10.0 4.9 4.2 67 2.6 WNW 20 32 11 17 1013.5 1013.5 0.0
28/10:30pm 10.1 4.4 4.7 69 2.4 WNW 24 39 13 21 1013.5 1013.5 0.0
28/10:00pm 10.2 5.5 5.0 70 2.4 WNW 19 30 10 16 1013.6 1013.6 0.0
28/09:30pm 10.3 5.1 5.5 72 2.2 WNW 22 39 12 21 1013.9 1013.9 0.0
28/09:00pm 10.3 5.6 5.9 74 2.0 WNW 20 32 11 17 1014.1 1014.1 0.0
28/08:30pm 10.3 5.9 6.5 77 1.8 WNW 19 30 10 16 1014.3 1014.3 0.0
28/08:00pm 10.5 5.9 6.6 77 1.8 WNW 20 37 11 20 1014.0 1014.0 0.0
28/07:34pm 10.7 4.5 6.1 73 2.1 WNW 28 46 15 25 1013.2 1013.2 0.0
28/07:30pm 10.7 4.5 6.1 73 2.1 WNW 28 43 15 23 1013.1 1013.1 0.0
28/07:01pm 11.0 3.6 6.6 74 2.1 WNW 35 56 19 30 1012.5 1012.5 0.0
28/07:00pm 11.0 3.6 6.6 74 2.1 WNW 35 52 19 28 1012.5 1012.5 0.0
28/06:30pm 11.0 2.2 7.1 77 1.9 WNW 43 61 23 33 1011.9 1011.9 0.0
28/06:26pm 11.1 2.3 7.2 77 1.9 WNW 43 61 23 33 1011.8 1011.8 0.0
28/06:00pm 11.2 3.5 7.3 77 1.9 WNW 37 54 20 29 1012.0 1012.0 0.0
28/05:30pm 11.4 3.4 7.3 76 2.0 WNW 39 61 21 33 1011.5 1011.5 0.0
28/05:27pm 11.5 3.5 7.4 76 2.0 WNW 39 61 21 33 1011.5 1011.5 0.0
28/05:00pm 11.8 5.0 7.5 75 2.1 WNW 33 44 18 24 1011.6 1011.6 0.0
28/04:30pm 12.3 5.7 7.6 73 2.3 WNW 32 46 17 25 1011.7 1011.7 0.0
28/04:13pm 12.6 6.7 7.7 72 2.4 WNW 28 46 15 25 1011.6 1011.6 0.0
28/04:00pm 13.1 6.5 7.8 70 2.6 WNW 32 48 17 26 1011.5 1011.5 0.0
28/03:30pm 13.9 7.7 7.9 67 3.0 WNW 30 56 16 30 1011.2 1011.2 0.0
28/03:15pm 13.4 7.6 7.8 69 2.8 WNW 28 48 15 26 1011.2 1011.2 0.0

Other Formats:

Comma delimited format used in spreadsheet applications
http://www.bom.gov.au/fwo/IDT60801/IDT60801.94983.axf

JavaScript Object Notation format (JSON) in row-major order
http://www.bom.gov.au/fwo/IDT60801/IDT60801.94983.json